Time;durP1;ratioP1;P1;durP2;ratioP2;P2;SDS_P1;SDS_P2;PMS_P1;PMS_P2;Temp;Humidity;BMP_temperature;BMP_pressure;BME280_temperature;BME280_humidity;BME280_pressure;Samples;Min_cycle;Max_cycle;Signal;HPM_P1;HPM_P2
2022/12/13 00:01:29;;;;;;;0.90;0.90;;;-3.50;99.90;;;;;;4952265;28;20052;-76
2022/12/13 00:03:59;;;;;;;0.90;0.90;;;-3.50;99.90;;;;;;4940542;28;20076;-75
2022/12/13 00:06:26;;;;;;;0.80;0.80;;;-3.50;99.90;;;;;;4945280;28;20049;-74
2022/12/13 00:08:52;;;;;;;0.80;0.80;;;-3.60;99.90;;;;;;4948695;28;20045;-75
2022/12/13 00:11:18;;;;;;;0.80;0.80;;;-3.50;99.90;;;;;;4952242;28;20050;-75
2022/12/13 00:13:50;;;;;;;0.90;0.90;;;-3.60;99.90;;;;;;4948886;28;20559;-75
2022/12/13 00:16:21;;;;;;;0.90;0.90;;;-3.60;99.90;;;;;;4936231;28;20889;-75
2022/12/13 00:18:49;;;;;;;0.90;0.90;;;-3.90;99.90;;;;;;4944605;28;20045;-75
2022/12/13 00:21:17;;;;;;;0.90;0.90;;;-3.80;99.90;;;;;;4941737;28;20056;-75
2022/12/13 00:23:44;;;;;;;0.90;0.90;;;-3.80;99.90;;;;;;4956031;28;20209;-75
2022/12/13 00:26:15;;;;;;;0.90;0.90;;;-3.80;99.90;;;;;;4944643;28;20416;-76
2022/12/13 00:28:41;;;;;;;0.90;0.90;;;-3.80;99.90;;;;;;4948106;28;20940;-76
2022/12/13 00:31:08;;;;;;;0.90;0.90;;;-3.70;99.90;;;;;;4956056;28;20240;-75
2022/12/13 00:33:37;;;;;;;0.85;0.85;;;-3.80;99.90;;;;;;4954511;28;20655;-76
2022/12/13 00:36:05;;;;;;;0.90;0.90;;;-3.90;99.90;;;;;;4954550;28;20412;-76
2022/12/13 00:38:32;;;;;;;0.90;0.90;;;-4.00;99.90;;;;;;4955230;28;20784;-76
2022/12/13 00:40:59;;;;;;;0.90;0.90;;;-4.00;99.90;;;;;;4948682;28;20819;-75
2022/12/13 00:43:24;;;;;;;0.88;0.88;;;-3.90;99.90;;;;;;4955727;28;20052;-75
2022/12/13 00:45:50;;;;;;;0.90;0.90;;;-3.80;99.90;;;;;;4949957;28;20061;-75
2022/12/13 00:48:16;;;;;;;0.90;0.90;;;-3.80;99.90;;;;;;4947458;28;20583;-75
2022/12/13 00:50:42;;;;;;;1.00;1.00;;;-3.80;99.90;;;;;;4947352;28;20940;-75
2022/12/13 00:53:09;;;;;;;0.90;0.90;;;-3.80;99.90;;;;;;4952926;28;20483;-75
2022/12/13 00:55:39;;;;;;;0.90;0.90;;;-3.80;99.90;;;;;;4948094;28;20421;-75
2022/12/13 00:58:05;;;;;;;0.90;0.90;;;-3.90;99.90;;;;;;4947688;28;20614;-76
2022/12/13 01:00:31;;;;;;;0.90;0.90;;;-3.80;99.90;;;;;;4941971;28;21064;-75
2022/12/13 01:02:57;;;;;;;0.90;0.90;;;-3.90;99.90;;;;;;4946685;28;20626;-75
2022/12/13 01:05:23;;;;;;;0.90;0.90;;;-3.90;99.90;;;;;;4940120;28;20041;-75
2022/12/13 01:07:49;;;;;;;0.80;0.80;;;-4.00;99.90;;;;;;4947439;28;20084;-76
2022/12/13 01:10:15;;;;;;;0.90;0.90;;;-4.10;99.90;;;;;;4940916;28;20053;-75
2022/12/13 01:12:41;;;;;;;0.90;0.90;;;-3.90;99.90;;;;;;4948567;28;20106;-76
2022/12/13 01:15:08;;;;;;;0.80;0.80;;;-4.10;99.90;;;;;;4946174;28;20045;-75
2022/12/13 01:17:34;;;;;;;0.90;0.90;;;-4.10;99.90;;;;;;4945052;28;20050;-75
2022/12/13 01:20:01;;;;;;;0.90;0.90;;;-4.10;99.90;;;;;;4944156;28;20095;-75
2022/12/13 01:22:27;;;;;;;0.90;0.90;;;-4.30;99.90;;;;;;4945821;28;20060;-75
2022/12/13 01:24:52;;;;;;;0.82;0.82;;;-4.60;99.90;;;;;;4945111;28;20966;-75
2022/12/13 01:27:18;;;;;;;0.80;0.80;;;-4.50;99.90;;;;;;4938861;28;20905;-75
2022/12/13 01:29:44;;;;;;;0.90;0.90;;;-4.60;99.90;;;;;;4947408;28;20056;-75
2022/12/13 01:32:10;;;;;;;0.80;0.80;;;-4.50;99.90;;;;;;4939960;28;20613;-75
2022/12/13 01:34:36;;;;;;;0.80;0.80;;;-4.50;99.90;;;;;;4951808;28;20510;-75
2022/12/13 01:37:20;;;;;;;0.85;0.85;;;-4.40;99.90;;;;;;4944714;28;20505;-75
2022/12/13 01:39:46;;;;;;;0.90;0.90;;;-4.40;99.90;;;;;;4945664;28;20056;-75
2022/12/13 01:42:13;;;;;;;0.90;0.90;;;-4.40;99.90;;;;;;4941366;28;20045;-75
2022/12/13 01:45:05;;;;;;;0.90;0.90;;;-4.50;99.90;;;;;;4946621;28;20057;-75
2022/12/13 01:47:34;;;;;;;0.90;0.90;;;-4.50;99.90;;;;;;4944474;28;20053;-75
2022/12/13 01:50:03;;;;;;;0.80;0.80;;;-4.40;99.90;;;;;;4943537;28;20569;-75
2022/12/13 01:52:32;;;;;;;0.80;0.80;;;-4.40;99.90;;;;;;4944787;28;20379;-75
2022/12/13 01:55:00;;;;;;;0.90;0.90;;;-4.40;99.90;;;;;;4945331;28;20055;-76
2022/12/13 01:57:27;;;;;;;0.90;0.90;;;-4.30;99.90;;;;;;4944593;28;20265;-74
2022/12/13 01:59:54;;;;;;;0.90;0.90;;;-4.40;99.90;;;;;;4939864;28;20076;-76
2022/12/13 02:02:20;;;;;;;0.90;0.90;;;-4.50;99.90;;;;;;4944224;28;20425;-75
2022/12/13 02:05:01;;;;;;;0.90;0.90;;;-4.20;99.90;;;;;;4944543;28;20714;-75
2022/12/13 02:07:30;;;;;;;0.90;0.90;;;-4.30;99.90;;;;;;4946159;28;20879;-75
2022/12/13 02:09:58;;;;;;;0.90;0.90;;;-4.30;99.90;;;;;;4945985;28;20049;-75
2022/12/13 02:12:31;;;;;;;0.85;0.85;;;-4.40;99.90;;;;;;4934316;28;20363;-75
2022/12/13 02:15:11;;;;;;;0.90;0.90;;;-4.40;99.90;;;;;;4943311;28;20234;-75
2022/12/13 02:17:43;;;;;;;0.90;0.90;;;-4.40;99.90;;;;;;4943456;28;20045;-75
2022/12/13 02:20:46;;;;;;;0.80;0.80;;;-4.30;99.90;;;;;;4941061;28;20041;-75
2022/12/13 02:23:39;;;;;;;1.00;1.00;;;-4.30;99.90;;;;;;4945624;28;20052;-75
2022/12/13 02:26:08;;;;;;;1.00;1.00;;;-4.30;99.90;;;;;;4946152;28;20045;-75
2022/12/13 02:28:46;;;;;;;0.90;0.90;;;-4.40;99.90;;;;;;4937411;28;20260;-75
2022/12/13 02:31:33;;;;;;;0.90;0.90;;;-4.40;99.90;;;;;;4940579;28;20250;-75
2022/12/13 02:34:02;;;;;;;0.90;0.90;;;-4.30;99.90;;;;;;4942540;28;20072;-75
2022/12/13 02:36:55;;;;;;;0.90;0.90;;;-4.10;99.90;;;;;;4934599;28;20137;-75
2022/12/13 02:39:52;;;;;;;0.90;0.90;;;-3.80;99.90;;;;;;4944183;28;20135;-75
2022/12/13 02:42:43;;;;;;;0.85;0.85;;;-3.80;99.90;;;;;;4943261;28;20072;-75
2022/12/13 02:45:17;;;;;;;0.90;0.90;;;-3.90;99.90;;;;;;4945434;28;20057;-75
2022/12/13 02:47:45;;;;;;;0.90;0.90;;;-4.00;99.90;;;;;;4943625;28;20681;-75
2022/12/13 02:50:14;;;;;;;0.90;0.90;;;-4.10;99.90;;;;;;4944107;28;20123;-75
2022/12/13 02:52:42;;;;;;;0.90;0.90;;;-4.10;99.90;;;;;;4936528;28;20049;-75
2022/12/13 02:55:12;;;;;;;0.90;0.90;;;-4.00;99.90;;;;;;4945600;28;20068;-75
2022/12/13 02:57:42;;;;;;;0.90;0.90;;;-4.00;99.90;;;;;;4951031;28;20088;-75
2022/12/13 03:00:10;;;;;;;0.80;0.80;;;-4.00;99.90;;;;;;4941292;28;20437;-75
2022/12/13 03:03:10;;;;;;;0.80;0.80;;;-4.00;99.90;;;;;;4935499;28;20061;-75
2022/12/13 03:08:40;;;;;;;0.90;0.90;;;-4.10;99.90;;;;;;4942167;28;20068;-75
2022/12/13 03:11:10;;;;;;;0.90;0.90;;;-4.10;99.90;;;;;;4921272;28;20114;-75
2022/12/13 03:13:56;;;;;;;0.90;0.90;;;-4.00;99.90;;;;;;4943678;28;20076;-75
2022/12/13 03:16:33;;;;;;;0.90;0.90;;;-3.90;99.90;;;;;;4934836;28;20400;-74
2022/12/13 03:19:04;;;;;;;0.90;0.90;;;-3.90;99.90;;;;;;4943678;28;20589;-74
2022/12/13 03:21:41;;;;;;;0.90;0.90;;;-4.00;99.90;;;;;;4940978;28;20547;-75
2022/12/13 03:24:07;;;;;;;0.90;0.90;;;-4.10;99.90;;;;;;4945127;28;20056;-75
2022/12/13 03:26:35;;;;;;;0.90;0.90;;;-4.20;99.90;;;;;;4946790;28;20372;-75
2022/12/13 03:29:19;;;;;;;0.90;0.90;;;-4.10;99.90;;;;;;4938756;28;20106;-75
2022/12/13 03:31:45;;;;;;;0.90;0.90;;;-4.20;99.90;;;;;;4948256;28;20853;-75
2022/12/13 03:34:11;;;;;;;0.90;0.90;;;-4.20;99.90;;;;;;4941121;28;20861;-75
2022/12/13 03:36:38;;;;;;;0.90;0.90;;;-4.20;99.90;;;;;;4937343;28;21051;-75
2022/12/13 03:39:04;;;;;;;0.90;0.90;;;-4.30;99.90;;;;;;4942330;28;20160;-75
2022/12/13 03:41:31;;;;;;;0.90;0.90;;;-4.40;99.90;;;;;;4946254;28;20045;-75
2022/12/13 03:44:01;;;;;;;0.90;0.90;;;-4.40;99.90;;;;;;4946934;28;20458;-75
2022/12/13 03:46:27;;;;;;;0.90;0.90;;;-4.30;99.90;;;;;;4947485;28;20116;-75
2022/12/13 03:48:53;;;;;;;0.90;0.90;;;-4.30;99.90;;;;;;4940627;28;20060;-75
2022/12/13 03:51:21;;;;;;;0.90;0.90;;;-4.40;99.90;;;;;;4937604;28;21706;-75
2022/12/13 03:53:49;;;;;;;0.90;0.90;;;-4.30;99.90;;;;;;4945874;28;20384;-75
2022/12/13 03:56:15;;;;;;;0.90;0.90;;;-4.30;99.90;;;;;;4954179;28;20111;-75
2022/12/13 03:58:41;;;;;;;0.90;0.90;;;-4.40;99.90;;;;;;4942975;28;20132;-75
2022/12/13 04:01:09;;;;;;;0.90;0.90;;;-4.40;99.90;;;;;;4945760;28;20704;-75
2022/12/13 04:03:36;;;;;;;1.00;1.00;;;-4.50;99.90;;;;;;4944000;28;20049;-75
2022/12/13 04:06:03;;;;;;;0.90;0.90;;;-4.50;99.90;;;;;;4949643;28;20103;-75
2022/12/13 04:08:29;;;;;;;0.90;0.90;;;-4.50;99.90;;;;;;4943821;28;20052;-75
2022/12/13 04:10:56;;;;;;;1.00;1.00;;;-4.50;99.90;;;;;;4952438;28;20160;-75
2022/12/13 04:13:31;;;;;;;0.90;0.90;;;-4.60;99.90;;;;;;4951668;28;20430;-75
2022/12/13 04:15:59;;;;;;;1.00;1.00;;;-4.70;99.90;;;;;;4936882;28;20049;-75
2022/12/13 04:18:25;;;;;;;0.90;0.90;;;-4.60;99.90;;;;;;4944007;28;20116;-75
2022/12/13 04:20:51;;;;;;;0.90;0.90;;;-4.60;99.90;;;;;;4944486;28;20068;-75
2022/12/13 04:23:17;;;;;;;1.00;1.00;;;-4.70;99.90;;;;;;4943710;28;20053;-75
2022/12/13 04:25:44;;;;;;;0.90;0.90;;;-4.70;99.90;;;;;;4945445;28;20051;-75
2022/12/13 04:28:10;;;;;;;1.00;1.00;;;-4.80;99.90;;;;;;4941406;28;20052;-75
2022/12/13 04:30:36;;;;;;;0.90;0.90;;;-4.80;99.90;;;;;;4940636;28;20087;-75
2022/12/13 04:33:02;;;;;;;0.90;0.90;;;-4.70;99.90;;;;;;4940667;28;20129;-75
2022/12/13 04:35:29;;;;;;;0.90;0.90;;;-4.80;99.90;;;;;;4942971;28;20132;-75
2022/12/13 04:37:55;;;;;;;0.90;0.90;;;-4.90;99.90;;;;;;4947295;28;21026;-75
2022/12/13 04:40:21;;;;;;;0.90;0.90;;;-4.60;99.90;;;;;;4947703;28;20098;-75
2022/12/13 04:42:48;;;;;;;0.90;0.90;;;-4.60;99.90;;;;;;4943634;28;20041;-75
2022/12/13 04:45:16;;;;;;;0.90;0.90;;;-4.60;99.90;;;;;;4946156;28;20118;-75
2022/12/13 04:47:42;;;;;;;0.90;0.90;;;-4.60;99.90;;;;;;4943393;28;20049;-75
2022/12/13 04:50:08;;;;;;;0.90;0.90;;;-4.60;99.90;;;;;;4949312;28;20107;-75
2022/12/13 04:52:34;;;;;;;0.90;0.90;;;-4.70;99.90;;;;;;4941143;28;20049;-75
2022/12/13 04:55:00;;;;;;;0.90;0.90;;;-4.70;99.90;;;;;;4944731;28;20464;-74
2022/12/13 04:57:26;;;;;;;0.90;0.90;;;-4.70;99.90;;;;;;4949173;28;21059;-75
2022/12/13 04:59:52;;;;;;;0.90;0.90;;;-4.70;99.90;;;;;;4944711;28;20275;-75
2022/12/13 05:02:18;;;;;;;0.90;0.90;;;-4.70;99.90;;;;;;4952579;28;20864;-75
2022/12/13 05:04:45;;;;;;;0.90;0.90;;;-4.60;99.90;;;;;;4940147;28;20045;-75
2022/12/13 05:07:11;;;;;;;0.90;0.90;;;-4.70;99.90;;;;;;4942549;28;20064;-75
2022/12/13 05:09:37;;;;;;;0.90;0.90;;;-4.70;99.90;;;;;;4943436;28;20038;-75
2022/12/13 05:12:03;;;;;;;0.98;0.98;;;-4.80;99.90;;;;;;4944362;28;20446;-75
2022/12/13 05:14:31;;;;;;;0.90;0.90;;;-4.80;99.90;;;;;;4944804;28;20819;-75
2022/12/13 05:16:57;;;;;;;0.90;0.90;;;-4.80;99.90;;;;;;4954078;28;20114;-75
2022/12/13 05:19:27;;;;;;;0.90;0.90;;;-4.90;99.90;;;;;;4949246;28;20049;-75
2022/12/13 05:21:53;;;;;;;0.90;0.90;;;-4.90;99.90;;;;;;4941498;28;20051;-75
2022/12/13 05:24:19;;;;;;;0.93;0.93;;;-4.90;99.90;;;;;;4943667;28;20045;-75
2022/12/13 05:26:44;;;;;;;0.90;0.90;;;-4.90;99.90;;;;;;4951849;28;20053;-76
2022/12/13 05:29:10;;;;;;;0.90;0.90;;;-4.90;99.90;;;;;;4945151;28;20408;-75
2022/12/13 05:31:36;;;;;;;0.90;0.90;;;-4.90;99.90;;;;;;4943708;28;20513;-75
2022/12/13 05:34:02;;;;;;;0.90;0.90;;;-5.00;99.90;;;;;;4939372;28;20495;-75
2022/12/13 05:36:28;;;;;;;0.90;0.90;;;-5.10;99.90;;;;;;4939124;28;20892;-75
2022/12/13 05:38:53;;;;;;;0.90;0.90;;;-5.00;99.90;;;;;;4939910;28;20155;-75
2022/12/13 05:41:25;;;;;;;0.90;0.90;;;-5.10;99.90;;;;;;4942500;28;20119;-75
2022/12/13 05:43:51;;;;;;;1.00;1.00;;;-5.00;99.90;;;;;;4950465;28;20558;-75
2022/12/13 05:46:17;;;;;;;0.80;0.80;;;-5.10;99.90;;;;;;4938621;28;20064;-75
2022/12/13 05:48:43;;;;;;;0.90;0.90;;;-5.20;99.90;;;;;;4944530;28;20601;-75
2022/12/13 05:51:10;;;;;;;0.90;0.90;;;-5.30;99.90;;;;;;4945954;28;20056;-75
2022/12/13 05:53:36;;;;;;;0.90;0.90;;;-5.20;99.90;;;;;;4942360;28;20060;-75
2022/12/13 05:56:02;;;;;;;1.00;1.00;;;-5.20;99.90;;;;;;4945997;28;20071;-75
2022/12/13 05:58:28;;;;;;;0.90;0.90;;;-5.20;99.90;;;;;;4944489;28;20037;-75
2022/12/13 06:00:54;;;;;;;0.90;0.90;;;-5.30;99.90;;;;;;4941403;28;20483;-75
2022/12/13 06:03:20;;;;;;;1.00;1.00;;;-5.20;99.90;;;;;;4954064;28;20533;-75
2022/12/13 06:05:46;;;;;;;0.90;0.90;;;-5.20;99.90;;;;;;4940102;28;20136;-75
2022/12/13 06:08:12;;;;;;;0.90;0.90;;;-5.10;99.90;;;;;;4948276;28;20044;-75
2022/12/13 06:10:37;;;;;;;0.90;0.90;;;-5.30;99.90;;;;;;4945021;28;20509;-75
2022/12/13 06:13:04;;;;;;;0.90;0.90;;;-5.40;99.90;;;;;;4947469;28;20379;-75
2022/12/13 06:15:31;;;;;;;0.90;0.90;;;-5.50;99.90;;;;;;4949123;28;20868;-75
2022/12/13 06:17:59;;;;;;;0.90;0.90;;;-5.50;99.90;;;;;;4944250;28;20134;-75
2022/12/13 06:20:25;;;;;;;0.90;0.90;;;-5.40;99.90;;;;;;4944195;28;20045;-75
2022/12/13 06:22:52;;;;;;;0.90;0.90;;;-5.40;99.90;;;;;;4943733;28;20053;-75
2022/12/13 06:25:18;;;;;;;0.90;0.90;;;-5.30;99.90;;;;;;4945980;28;20439;-75
2022/12/13 06:27:44;;;;;;;0.90;0.90;;;-5.30;99.90;;;;;;4946406;28;20912;-75
2022/12/13 06:30:10;;;;;;;0.90;0.90;;;-5.30;99.90;;;;;;4952198;28;20053;-75
2022/12/13 06:32:36;;;;;;;0.90;0.90;;;-5.30;99.90;;;;;;4943750;28;20045;-75
2022/12/13 06:35:02;;;;;;;0.90;0.90;;;-5.30;99.90;;;;;;4947887;28;20045;-74
2022/12/13 06:37:28;;;;;;;0.90;0.90;;;-5.50;99.90;;;;;;4943123;28;20605;-74
2022/12/13 06:39:53;;;;;;;0.90;0.90;;;-5.50;99.90;;;;;;4934188;28;20100;-74
2022/12/13 06:42:19;;;;;;;0.90;0.90;;;-5.30;99.90;;;;;;4960448;28;20055;-74
2022/12/13 06:44:45;;;;;;;0.90;0.90;;;-5.40;99.90;;;;;;4983823;28;20166;-75
2022/12/13 06:47:12;;;;;;;0.90;0.90;;;-5.50;99.90;;;;;;4947138;28;20045;-75
2022/12/13 06:49:37;;;;;;;0.95;0.95;;;-5.50;99.90;;;;;;4948076;28;20883;-75
2022/12/13 06:52:04;;;;;;;0.90;0.90;;;-5.50;99.90;;;;;;4941946;28;20045;-75
2022/12/13 06:54:30;;;;;;;0.95;0.95;;;-5.50;99.90;;;;;;4945150;28;20087;-75
2022/12/13 06:56:56;;;;;;;0.90;0.90;;;-5.50;99.90;;;;;;4937727;28;20049;-75
2022/12/13 06:59:22;;;;;;;0.90;0.90;;;-5.50;99.90;;;;;;4947147;28;20475;-75
2022/12/13 07:01:48;;;;;;;0.90;0.90;;;-5.60;99.90;;;;;;4941325;28;20033;-75
2022/12/13 07:04:14;;;;;;;0.90;0.90;;;-5.60;99.90;;;;;;4941155;28;20109;-75
2022/12/13 07:06:40;;;;;;;1.00;1.00;;;-5.50;99.90;;;;;;4943042;28;20502;-75
2022/12/13 07:09:05;;;;;;;0.90;0.90;;;-5.60;99.90;;;;;;4937139;28;22585;-75
2022/12/13 07:11:32;;;;;;;1.00;1.00;;;-5.60;99.90;;;;;;4941779;28;20117;-75
2022/12/13 07:13:59;;;;;;;0.90;0.90;;;-5.60;99.90;;;;;;4944732;28;20119;-75
2022/12/13 07:16:25;;;;;;;0.90;0.90;;;-5.50;99.90;;;;;;4943799;28;20103;-75
2022/12/13 07:18:55;;;;;;;0.90;0.90;;;-5.50;99.90;;;;;;4946743;28;20084;-76
2022/12/13 07:21:21;;;;;;;0.90;0.90;;;-5.40;99.90;;;;;;4940478;28;20057;-75
2022/12/13 07:23:49;;;;;;;0.90;0.90;;;-5.40;99.90;;;;;;4945352;28;20883;-75
2022/12/13 07:26:15;;;;;;;0.90;0.90;;;-5.30;99.90;;;;;;4944974;28;20138;-75
2022/12/13 07:28:41;;;;;;;0.90;0.90;;;-5.20;99.90;;;;;;4943810;28;20053;-77
2022/12/13 07:31:08;;;;;;;0.90;0.90;;;-5.20;99.90;;;;;;4948171;28;20255;-75
2022/12/13 07:33:35;;;;;;;0.90;0.90;;;-5.10;99.90;;;;;;4945214;28;20063;-76
2022/12/13 07:36:03;;;;;;;0.90;0.90;;;-5.20;99.90;;;;;;4941878;28;20590;-75
2022/12/13 07:38:29;;;;;;;0.90;0.90;;;-5.10;99.90;;;;;;4938377;28;20285;-74
2022/12/13 07:40:56;;;;;;;0.90;0.90;;;-5.00;99.90;;;;;;4942809;28;20203;-74
2022/12/13 07:43:23;;;;;;;0.90;0.90;;;-5.00;99.90;;;;;;4941888;28;20140;-74
2022/12/13 07:45:50;;;;;;;0.90;0.90;;;-5.00;99.90;;;;;;4945050;28;20075;-75
2022/12/13 07:48:15;;;;;;;0.90;0.90;;;-4.90;99.90;;;;;;4923031;28;20063;-75
2022/12/13 07:50:42;;;;;;;0.90;0.90;;;-5.00;99.90;;;;;;4948201;28;20041;-74
2022/12/13 07:53:08;;;;;;;0.90;0.90;;;-4.90;99.90;;;;;;4948939;28;20063;-75
2022/12/13 07:55:35;;;;;;;0.90;0.90;;;-4.90;99.90;;;;;;4952461;28;20451;-74
2022/12/13 07:58:06;;;;;;;0.90;0.90;;;-5.00;99.90;;;;;;4941667;28;20218;-74
2022/12/13 08:00:33;;;;;;;0.90;0.90;;;-4.90;99.90;;;;;;4948308;28;20048;-75
2022/12/13 08:03:00;;;;;;;0.90;0.90;;;-4.80;99.90;;;;;;4946214;28;20057;-74
2022/12/13 08:05:27;;;;;;;0.90;0.90;;;-4.80;99.90;;;;;;4948560;28;20111;-75
2022/12/13 08:07:53;;;;;;;0.90;0.90;;;-4.90;99.90;;;;;;4940633;28;20052;-76
2022/12/13 08:10:18;;;;;;;0.90;0.90;;;-4.90;99.90;;;;;;4945099;28;20053;-77
2022/12/13 08:12:44;;;;;;;0.90;0.90;;;-4.80;99.90;;;;;;4940517;28;20490;-75
2022/12/13 08:15:10;;;;;;;0.90;0.90;;;-4.80;99.90;;;;;;4946104;28;20045;-75
2022/12/13 08:17:37;;;;;;;1.00;1.00;;;-4.80;99.90;;;;;;4945743;28;21030;-76
2022/12/13 08:20:04;;;;;;;0.90;0.90;;;-4.80;99.90;;;;;;4949158;28;20672;-76
2022/12/13 08:22:30;;;;;;;0.90;0.90;;;-4.70;99.90;;;;;;4950844;28;20459;-75
2022/12/13 08:24:56;;;;;;;0.90;0.90;;;-4.50;99.90;;;;;;4940740;28;20041;-75
2022/12/13 08:27:22;;;;;;;0.95;0.95;;;-4.50;99.90;;;;;;4947415;28;20045;-75
2022/12/13 08:29:49;;;;;;;1.00;1.00;;;-4.30;99.90;;;;;;4946131;28;20068;-76
2022/12/13 08:32:15;;;;;;;1.00;1.00;;;-4.20;99.90;;;;;;4951715;28;20565;-76
2022/12/13 08:34:44;;;;;;;0.90;0.90;;;-4.20;99.90;;;;;;4948547;28;20591;-75
2022/12/13 08:37:11;;;;;;;0.90;0.90;;;-4.10;99.90;;;;;;4949110;28;20054;-75
2022/12/13 08:39:38;;;;;;;0.90;0.90;;;-4.00;99.90;;;;;;4950568;28;20061;-75
2022/12/13 08:42:15;;;;;;;0.90;0.90;;;-3.90;99.90;;;;;;4941395;28;20037;-74
2022/12/13 08:44:41;;;;;;;0.90;0.90;;;-3.80;99.90;;;;;;4946519;28;20053;-75
2022/12/13 08:47:08;;;;;;;0.90;0.90;;;-3.70;99.90;;;;;;4946704;28;20045;-76
2022/12/13 08:49:34;;;;;;;0.80;0.80;;;-3.60;99.90;;;;;;4946402;28;20248;-76
2022/12/13 08:51:59;;;;;;;0.90;0.90;;;-3.50;99.90;;;;;;4944383;28;20045;-74
2022/12/13 08:54:25;;;;;;;0.82;0.82;;;-3.60;99.90;;;;;;4947483;28;20542;-74
2022/12/13 08:56:51;;;;;;;0.90;0.90;;;-3.70;99.90;;;;;;4944243;28;20750;-74
2022/12/13 08:59:17;;;;;;;0.80;0.80;;;-3.50;99.90;;;;;;4946415;28;20075;-75
2022/12/13 09:01:44;;;;;;;0.90;0.90;;;-3.30;99.90;;;;;;4945889;28;20515;-75
2022/12/13 09:04:09;;;;;;;0.90;0.90;;;-3.20;99.90;;;;;;4948553;28;20136;-75
2022/12/13 09:06:36;;;;;;;0.90;0.90;;;-3.10;99.90;;;;;;4938005;28;20075;-75
2022/12/13 09:09:02;;;;;;;0.80;0.80;;;-3.00;99.90;;;;;;4930798;28;20095;-76
2022/12/13 09:11:28;;;;;;;0.80;0.80;;;-2.90;99.90;;;;;;4944932;28;20506;-75
2022/12/13 09:13:54;;;;;;;0.90;0.90;;;-2.60;99.90;;;;;;4944188;28;20060;-75
2022/12/13 09:16:22;;;;;;;0.80;0.80;;;-2.60;99.90;;;;;;4946229;28;20080;-75
2022/12/13 09:18:52;;;;;;;0.85;0.85;;;-2.40;99.90;;;;;;4946375;28;20057;-76
2022/12/13 09:21:18;;;;;;;0.70;0.70;;;-2.40;99.90;;;;;;4946567;28;20805;-76
2022/12/13 09:23:44;;;;;;;0.85;0.85;;;-2.30;99.90;;;;;;4948059;28;20045;-75
2022/12/13 09:26:12;;;;;;;0.80;0.80;;;-2.20;99.90;;;;;;4943127;28;20167;-75
2022/12/13 09:28:39;;;;;;;0.80;0.80;;;-2.10;99.90;;;;;;4944411;28;20049;-75
2022/12/13 09:31:10;;;;;;;0.80;0.80;;;-2.10;99.90;;;;;;4952469;28;20065;-77
2022/12/13 09:33:37;;;;;;;0.82;0.82;;;-2.00;99.90;;;;;;4949773;28;20113;-76
2022/12/13 09:36:05;;;;;;;0.80;0.80;;;-1.90;99.90;;;;;;4946140;28;20046;-75
2022/12/13 09:38:32;;;;;;;0.80;0.80;;;-1.80;99.90;;;;;;4949027;28;20375;-76
2022/12/13 09:40:59;;;;;;;0.80;0.80;;;-1.70;99.90;;;;;;4943997;28;20088;-76
2022/12/13 09:43:31;;;;;;;0.80;0.80;;;-1.70;99.90;;;;;;4944398;28;20503;-77
2022/12/13 09:46:02;;;;;;;0.80;0.80;;;-1.70;99.90;;;;;;4962099;28;20061;-77
2022/12/13 09:48:28;;;;;;;0.80;0.80;;;-1.50;99.90;;;;;;4935187;28;20053;-75
2022/12/13 09:50:54;;;;;;;0.80;0.80;;;-1.50;99.90;;;;;;4957848;28;20418;-77
2022/12/13 09:53:20;;;;;;;0.80;0.80;;;-1.40;99.90;;;;;;4949879;28;20337;-76
2022/12/13 09:55:51;;;;;;;0.80;0.80;;;-1.50;99.90;;;;;;4942305;28;20679;-76
2022/12/13 09:58:20;;;;;;;0.80;0.80;;;-1.30;99.90;;;;;;4946633;28;20053;-77
2022/12/13 10:00:50;;;;;;;0.80;0.80;;;-1.50;99.90;;;;;;4942268;28;20045;-77
2022/12/13 10:03:18;;;;;;;0.80;0.80;;;-1.60;99.90;;;;;;4945560;28;20064;-78
2022/12/13 10:05:57;;;;;;;0.80;0.80;;;-1.40;99.90;;;;;;4946570;28;20445;-78
2022/12/13 10:08:34;;;;;;;0.80;0.80;;;-1.30;99.90;;;;;;4945096;28;20056;-78
2022/12/13 10:11:00;;;;;;;0.80;0.80;;;-1.20;99.90;;;;;;4952831;28;20049;-76
2022/12/13 10:13:35;;;;;;;0.80;0.80;;;-1.20;99.90;;;;;;4944330;28;20986;-77
2022/12/13 10:16:27;;;;;;;0.75;0.75;;;-1.10;99.90;;;;;;4959907;28;20412;-76
2022/12/13 10:18:54;;;;;;;0.80;0.80;;;-1.20;99.90;;;;;;4944287;28;20069;-77
2022/12/13 10:21:27;;;;;;;0.70;0.70;;;-1.10;99.90;;;;;;4942505;28;20061;-76
2022/12/13 10:24:21;;;;;;;0.80;0.80;;;-1.10;99.90;;;;;;4954141;28;20041;-74
2022/12/13 10:26:47;;;;;;;0.80;0.80;;;-1.10;99.90;;;;;;4945171;28;20542;-76
2022/12/13 10:29:13;;;;;;;0.70;0.70;;;-1.00;99.90;;;;;;4944216;28;20939;-76
2022/12/13 10:31:48;;;;;;;0.70;0.70;;;-1.10;99.90;;;;;;4961047;28;20215;-75
2022/12/13 10:34:27;;;;;;;0.80;0.80;;;-0.90;99.90;;;;;;4946090;28;20128;-78
2022/12/13 10:36:53;;;;;;;0.80;0.80;;;-1.00;99.90;;;;;;4953373;28;20506;-77
2022/12/13 10:39:40;;;;;;;0.80;0.80;;;-0.90;99.90;;;;;;4947363;28;20041;-77
2022/12/13 10:42:19;;;;;;;0.80;0.80;;;-0.80;99.90;;;;;;4943964;28;20135;-77
2022/12/13 10:44:45;;;;;;;0.80;0.80;;;-0.70;99.90;;;;;;4944432;28;20299;-78
2022/12/13 10:47:22;;;;;;;0.80;0.80;;;-0.60;99.90;;;;;;4951164;28;20510;-77
2022/12/13 10:49:52;;;;;;;0.80;0.80;;;-0.70;99.90;;;;;;4954237;28;20046;-78
2022/12/13 10:52:48;;;;;;;0.80;0.80;;;-0.60;99.90;;;;;;4955375;28;20541;-78
2022/12/13 10:55:31;;;;;;;0.80;0.80;;;-0.40;99.90;;;;;;4938887;28;20311;-78
2022/12/13 10:58:17;;;;;;;0.80;0.80;;;-0.30;99.90;;;;;;4941089;28;20045;-79
2022/12/13 11:00:45;;;;;;;0.80;0.80;;;-0.30;99.90;;;;;;4951765;28;20051;-80
2022/12/13 11:03:31;;;;;;;0.80;0.80;;;-0.20;99.90;;;;;;4926099;28;20774;-80
2022/12/13 11:06:06;;;;;;;0.80;0.80;;;-0.10;99.90;;;;;;4942170;28;20044;-79
2022/12/13 11:08:32;;;;;;;0.80;0.80;;;0.00;99.90;;;;;;4945031;28;20044;-80
2022/12/13 11:11:03;;;;;;;0.80;0.80;;;0.00;99.90;;;;;;4944534;28;20045;-80
2022/12/13 11:13:45;;;;;;;0.70;0.70;;;0.10;99.90;;;;;;4945941;28;20203;-79
2022/12/13 11:16:30;;;;;;;0.70;0.70;;;-0.10;99.90;;;;;;4950587;28;20037;-79
2022/12/13 11:19:05;;;;;;;0.70;0.70;;;0.00;99.90;;;;;;4946634;28;20069;-79
2022/12/13 11:21:35;;;;;;;0.70;0.70;;;0.20;99.90;;;;;;4945705;28;20045;-79
2022/12/13 11:24:04;;;;;;;0.80;0.80;;;0.30;99.90;;;;;;4942983;28;20049;-80
2022/12/13 11:26:34;;;;;;;0.82;0.82;;;0.50;99.90;;;;;;4944051;28;20102;-80
2022/12/13 11:29:22;;;;;;;0.70;0.70;;;0.60;99.90;;;;;;4949782;28;20128;-79
2022/12/13 11:32:12;;;;;;;0.70;0.70;;;0.70;99.90;;;;;;4941625;28;20844;-79
2022/12/13 11:34:40;;;;;;;0.77;0.77;;;0.70;99.90;;;;;;4954554;28;20128;-79
2022/12/13 11:37:27;;;;;;;0.80;0.80;;;0.70;99.90;;;;;;4948399;28;20147;-80
2022/12/13 11:40:19;;;;;;;0.70;0.70;;;0.90;99.90;;;;;;4948717;28;20053;-79
2022/12/13 11:43:22;;;;;;;0.80;0.80;;;1.00;99.90;;;;;;4959051;28;20050;-80
2022/12/13 11:45:55;;;;;;;0.80;0.80;;;1.20;99.90;;;;;;4953054;28;20387;-79
2022/12/13 11:48:35;;;;;;;0.70;0.70;;;1.10;99.90;;;;;;4944977;28;20288;-79
2022/12/13 11:51:05;;;;;;;0.70;0.70;;;1.20;99.90;;;;;;4956553;28;20416;-80
2022/12/13 11:53:57;;;;;;;0.80;0.80;;;1.20;99.90;;;;;;4942697;28;20990;-79
2022/12/13 11:56:41;;;;;;;0.60;0.60;;;1.20;99.90;;;;;;4944682;28;20498;-81
2022/12/13 11:59:32;;;;;;;0.70;0.70;;;1.30;99.90;;;;;;4948718;28;20453;-82
2022/12/13 12:02:40;;;;;;;0.73;0.73;;;1.30;99.90;;;;;;4942783;28;20403;-81
2022/12/13 12:05:37;;;;;;;0.70;0.70;;;1.30;99.90;;;;;;4934609;28;20414;-81
2022/12/13 12:08:21;;;;;;;0.70;0.70;;;1.30;99.90;;;;;;4943601;28;20049;-80
2022/12/13 12:10:50;;;;;;;0.77;0.77;;;1.40;99.90;;;;;;4945316;28;20083;-81
2022/12/13 12:13:25;;;;;;;0.80;0.80;;;1.50;99.90;;;;;;4945562;28;20226;-82
2022/12/13 12:16:21;;;;;;;0.80;0.80;;;1.70;99.90;;;;;;4951390;28;20041;-81
2022/12/13 12:18:49;;;;;;;0.80;0.80;;;1.70;99.90;;;;;;4950647;28;20065;-81
2022/12/13 12:21:26;;;;;;;0.80;0.80;;;1.70;99.90;;;;;;4948999;28;20057;-80
2022/12/13 12:24:20;;;;;;;0.70;0.70;;;1.70;99.90;;;;;;4950309;28;20360;-80
2022/12/13 12:26:46;;;;;;;0.70;0.70;;;1.70;99.90;;;;;;4947419;28;21347;-78
2022/12/13 12:29:15;;;;;;;0.70;0.70;;;1.70;99.90;;;;;;4951902;28;20072;-80
2022/12/13 12:32:02;;;;;;;0.70;0.70;;;1.90;99.90;;;;;;4954956;28;20208;-82
2022/12/13 12:34:50;;;;;;;0.70;0.70;;;1.90;99.90;;;;;;4952490;28;20444;-81
2022/12/13 12:37:15;;;;;;;0.70;0.70;;;1.90;99.90;;;;;;4954288;28;20956;-83
2022/12/13 12:39:50;;;;;;;0.70;0.70;;;1.80;99.90;;;;;;4953584;28;20059;-82
2022/12/13 12:42:28;;;;;;;0.70;0.70;;;1.80;99.90;;;;;;4958261;28;20502;-82
2022/12/13 12:45:24;;;;;;;0.80;0.80;;;1.80;99.90;;;;;;4964891;28;20496;-83
2022/12/13 12:48:15;;;;;;;0.70;0.70;;;1.80;99.90;;;;;;4961645;28;20060;-82
2022/12/13 12:50:55;;;;;;;0.70;0.70;;;2.00;99.90;;;;;;4953925;28;20918;-81
2022/12/13 12:53:49;;;;;;;0.70;0.70;;;1.90;99.90;;;;;;4948982;28;20129;-82
2022/12/13 12:56:39;;;;;;;0.70;0.70;;;2.00;99.90;;;;;;4948063;28;20050;-81
2022/12/13 12:59:29;;;;;;;0.70;0.70;;;2.00;99.90;;;;;;4956359;28;20195;-84
2022/12/13 13:02:14;;;;;;;0.70;0.70;;;2.10;99.90;;;;;;4950961;28;20057;-82
2022/12/13 13:04:47;;;;;;;0.70;0.70;;;2.10;99.90;;;;;;4950318;28;20063;-81
2022/12/13 13:07:33;;;;;;;0.70;0.70;;;2.10;99.90;;;;;;4949270;28;20059;-82
2022/12/13 13:10:01;;;;;;;0.70;0.70;;;2.10;99.90;;;;;;4945105;28;20057;-81